Time;durP1;ratioP1;P1;durP2;ratioP2;P2;SDS_P1;SDS_P2;PMS_P1;PMS_P2;Temp;Humidity;BMP_temperature;BMP_pressure;BME280_temperature;BME280_humidity;BME280_pressure;Samples;Min_cycle;Max_cycle;Signal;HPM_P1;HPM_P2
2021/03/08 00:00:16;;;;;;;68.00;25.00;;;-3.10;98.60;;;;;;4157724;28;20472;-63
2021/03/08 00:02:18;;;;;;;55.42;22.02;;;-3.10;98.60;;;;;;4141109;28;20034;-64
2021/03/08 00:04:19;;;;;;;52.97;21.30;;;-3.10;98.70;;;;;;4157579;28;20095;-64
2021/03/08 00:06:20;;;;;;;45.97;19.15;;;-3.10;98.50;;;;;;4158048;28;20103;-64
2021/03/08 00:08:21;;;;;;;36.72;16.98;;;-3.10;98.40;;;;;;4139713;28;20580;-63
2021/03/08 00:10:23;;;;;;;35.47;16.35;;;-3.00;98.60;;;;;;4158677;28;20095;-64
2021/03/08 00:12:24;;;;;;;39.35;17.10;;;-3.00;98.50;;;;;;4157050;28;20034;-64
2021/03/08 00:14:25;;;;;;;37.67;16.60;;;-3.00;98.40;;;;;;4158468;28;20038;-63
2021/03/08 00:16:26;;;;;;;34.28;15.15;;;-2.90;98.40;;;;;;4157439;28;20056;-64
2021/03/08 00:18:27;;;;;;;35.30;15.77;;;-2.90;98.50;;;;;;4157798;28;20367;-63
2021/03/08 00:20:29;;;;;;;36.72;15.55;;;-3.00;98.60;;;;;;4157873;28;20064;-65
2021/03/08 00:22:30;;;;;;;38.88;17.25;;;-3.00;98.60;;;;;;4157370;28;20037;-64
2021/03/08 00:24:31;;;;;;;41.03;18.55;;;-3.10;99.60;;;;;;4158454;28;20041;-64
2021/03/08 00:26:32;;;;;;;38.35;19.10;;;-3.30;99.90;;;;;;4157060;28;20095;-64
2021/03/08 00:28:34;;;;;;;44.25;18.98;;;-3.40;99.90;;;;;;4158670;28;20034;-64
2021/03/08 00:30:35;;;;;;;45.47;19.55;;;-3.50;99.90;;;;;;4156484;28;20041;-63
2021/03/08 00:32:36;;;;;;;38.35;18.17;;;-3.50;99.90;;;;;;4158076;28;20041;-62
2021/03/08 00:34:38;;;;;;;47.75;21.67;;;-3.60;99.90;;;;;;4156720;28;20029;-63
2021/03/08 00:36:39;;;;;;;42.88;20.13;;;-3.60;99.90;;;;;;4158007;28;20037;-63
2021/03/08 00:38:40;;;;;;;53.47;22.25;;;-3.60;99.90;;;;;;4156819;28;20064;-64
2021/03/08 00:40:41;;;;;;;62.60;26.63;;;-3.60;99.90;;;;;;4157759;28;20548;-65
2021/03/08 00:42:43;;;;;;;69.13;27.45;;;-3.60;99.90;;;;;;4155803;28;20053;-64
2021/03/08 00:44:45;;;;;;;49.38;23.08;;;-3.70;99.90;;;;;;4158038;28;20029;-64
2021/03/08 00:46:46;;;;;;;44.00;19.65;;;-3.60;99.90;;;;;;4156618;28;20048;-64
2021/03/08 00:48:47;;;;;;;47.58;21.40;;;-3.70;99.90;;;;;;4157458;28;20033;-63
2021/03/08 00:50:50;;;;;;;54.03;21.25;;;-3.70;99.90;;;;;;4157479;28;20433;-64
2021/03/08 00:52:51;;;;;;;46.25;19.58;;;-3.70;99.90;;;;;;4157544;28;20041;-64
2021/03/08 00:54:52;;;;;;;45.90;20.15;;;-3.70;99.90;;;;;;4157945;28;20075;-65
2021/03/08 00:56:53;;;;;;;45.65;20.58;;;-3.80;99.90;;;;;;4157021;28;20041;-65
2021/03/08 00:58:55;;;;;;;54.03;23.02;;;-3.80;99.90;;;;;;4158044;28;20099;-67
2021/03/08 01:00:56;;;;;;;59.50;24.65;;;-3.80;99.90;;;;;;4156854;28;20041;-65
2021/03/08 01:02:57;;;;;;;53.13;23.25;;;-3.80;99.90;;;;;;4158007;28;20025;-64
2021/03/08 01:04:58;;;;;;;42.42;19.75;;;-3.90;99.90;;;;;;4156617;28;20115;-65
2021/03/08 01:06:59;;;;;;;48.47;21.55;;;-3.80;99.90;;;;;;4157935;28;20115;-65
2021/03/08 01:09:01;;;;;;;51.08;20.77;;;-3.90;99.90;;;;;;4156449;28;20077;-65
2021/03/08 01:11:02;;;;;;;40.13;18.88;;;-3.90;99.90;;;;;;4157711;28;20033;-66
2021/03/08 01:13:03;;;;;;;43.70;20.25;;;-3.90;99.90;;;;;;4155833;28;20075;-64
2021/03/08 01:15:06;;;;;;;47.33;20.48;;;-4.00;99.90;;;;;;4157925;28;20034;-66
2021/03/08 01:17:07;;;;;;;44.88;19.88;;;-4.00;99.90;;;;;;4156054;28;20080;-64
2021/03/08 01:19:08;;;;;;;51.90;21.92;;;-4.10;99.90;;;;;;4157858;28;20087;-64
2021/03/08 01:21:09;;;;;;;51.65;23.30;;;-4.10;99.90;;;;;;4157024;28;20022;-65
2021/03/08 01:23:12;;;;;;;51.28;23.70;;;-4.10;99.90;;;;;;4157352;28;20079;-67
2021/03/08 01:25:15;;;;;;;46.25;21.50;;;-4.10;99.90;;;;;;4157502;28;20458;-65
2021/03/08 01:27:17;;;;;;;53.10;21.67;;;-4.10;99.90;;;;;;4156618;28;20041;-65
2021/03/08 01:29:18;;;;;;;43.55;20.88;;;-4.20;99.90;;;;;;4154652;28;20399;-63
2021/03/08 01:31:19;;;;;;;54.13;21.35;;;-4.20;99.90;;;;;;4156253;28;20034;-65
2021/03/08 01:33:20;;;;;;;51.05;21.00;;;-4.20;99.90;;;;;;4157328;28;20041;-66
2021/03/08 01:35:22;;;;;;;48.33;19.83;;;-4.20;99.90;;;;;;4156415;28;20119;-65
2021/03/08 01:37:24;;;;;;;47.35;20.40;;;-4.20;99.90;;;;;;4157866;28;20103;-65
2021/03/08 01:39:25;;;;;;;46.78;19.40;;;-4.20;99.90;;;;;;4156174;28;20918;-66
2021/03/08 01:41:26;;;;;;;39.67;19.20;;;-4.30;99.90;;;;;;4157161;28;20033;-66
2021/03/08 01:43:27;;;;;;;40.78;19.88;;;-4.30;99.90;;;;;;4155985;28;20551;-66
2021/03/08 01:45:29;;;;;;;47.75;20.73;;;-4.30;99.90;;;;;;4157697;28;20536;-64
2021/03/08 01:47:30;;;;;;;59.47;27.02;;;-4.30;99.90;;;;;;4156681;28;20737;-64
2021/03/08 01:49:31;;;;;;;56.35;26.33;;;-4.40;99.90;;;;;;4157215;28;20088;-63
2021/03/08 01:51:32;;;;;;;53.45;23.42;;;-4.40;99.90;;;;;;4156422;28;20029;-64
2021/03/08 01:53:35;;;;;;;56.30;22.73;;;-4.40;99.90;;;;;;4157317;28;20033;-63
2021/03/08 01:55:38;;;;;;;44.38;19.08;;;-4.40;99.90;;;;;;4159688;28;20489;-64
2021/03/08 01:57:39;;;;;;;43.08;18.67;;;-4.40;99.90;;;;;;4159340;28;20071;-65
2021/03/08 01:59:41;;;;;;;40.30;17.98;;;-4.40;99.90;;;;;;4159244;28;20076;-66
2021/03/08 02:01:43;;;;;;;39.05;17.08;;;-4.30;99.90;;;;;;4159309;28;20064;-63
2021/03/08 02:03:44;;;;;;;42.60;18.60;;;-4.30;99.90;;;;;;4161123;28;20038;-65
2021/03/08 02:05:46;;;;;;;38.08;17.33;;;-4.30;99.90;;;;;;4159377;28;20725;-66
2021/03/08 02:07:48;;;;;;;37.22;15.35;;;-4.30;99.90;;;;;;4160348;28;20547;-66
2021/03/08 02:09:49;;;;;;;33.40;14.48;;;-4.30;99.90;;;;;;4159685;28;20037;-66
2021/03/08 02:11:58;;;;;;;24.00;11.85;;;-4.30;99.90;;;;;;4160501;28;20867;-65
2021/03/08 02:14:17;;;;;;;28.38;13.48;;;-4.30;99.90;;;;;;4159201;28;20106;-66
2021/03/08 02:16:32;;;;;;;32.75;15.13;;;-4.30;99.90;;;;;;4160306;28;20033;-66
2021/03/08 02:18:49;;;;;;;36.90;14.82;;;-4.20;99.90;;;;;;4159005;28;20118;-65
2021/03/08 02:21:17;;;;;;;34.35;15.35;;;-4.20;99.90;;;;;;4160275;28;20091;-65
2021/03/08 02:23:39;;;;;;;37.60;15.63;;;-4.20;99.90;;;;;;4159090;28;20107;-66
2021/03/08 02:26:11;;;;;;;35.70;15.50;;;-4.30;99.90;;;;;;4160769;28;20033;-66
2021/03/08 02:28:59;;;;;;;38.92;15.95;;;-4.30;99.90;;;;;;4160199;28;20029;-65
2021/03/08 02:31:04;;;;;;;31.95;15.70;;;-4.40;99.90;;;;;;4124889;28;20041;-64
2021/03/08 02:33:08;;;;;;;36.53;17.08;;;-4.40;99.90;;;;;;4160685;28;20072;-64
2021/03/08 02:35:17;;;;;;;37.10;16.65;;;-4.50;99.90;;;;;;4158699;28;20021;-64
2021/03/08 02:37:26;;;;;;;36.83;17.17;;;-4.50;99.90;;;;;;4160469;28;20107;-65
2021/03/08 02:39:32;;;;;;;33.03;15.38;;;-4.60;99.90;;;;;;4159238;28;20087;-65
2021/03/08 02:41:35;;;;;;;40.90;18.23;;;-4.60;99.90;;;;;;4160666;28;20030;-65
2021/03/08 02:43:44;;;;;;;41.80;17.90;;;-4.60;99.90;;;;;;4158953;28;20072;-64
2021/03/08 02:45:49;;;;;;;41.72;19.50;;;-4.60;99.90;;;;;;4159938;28;20786;-64
2021/03/08 02:47:53;;;;;;;37.53;17.40;;;-4.60;99.90;;;;;;4157583;28;20110;-66
2021/03/08 02:49:56;;;;;;;39.20;16.58;;;-4.70;99.90;;;;;;4159542;28;20095;-67
2021/03/08 02:52:11;;;;;;;35.15;16.30;;;-4.70;99.90;;;;;;4159304;28;20033;-64
2021/03/08 02:54:15;;;;;;;39.10;16.73;;;-4.70;99.90;;;;;;4159261;28;20029;-66
2021/03/08 02:56:22;;;;;;;33.42;14.13;;;-4.70;99.90;;;;;;4159855;28;20095;-67
2021/03/08 02:58:26;;;;;;;34.35;14.15;;;-4.70;99.90;;;;;;4159221;28;20037;-67
2021/03/08 03:00:29;;;;;;;34.33;16.35;;;-4.70;99.90;;;;;;4159458;28;20029;-67
2021/03/08 03:02:30;;;;;;;35.97;17.60;;;-4.70;99.90;;;;;;4158990;28;20547;-65
2021/03/08 03:04:32;;;;;;;35.13;16.13;;;-4.70;99.90;;;;;;4159769;28;20033;-68
2021/03/08 03:06:36;;;;;;;34.40;14.20;;;-4.70;99.90;;;;;;4156835;28;20045;-67
2021/03/08 03:08:42;;;;;;;28.98;13.45;;;-4.70;99.90;;;;;;4159830;28;20065;-66
2021/03/08 03:10:43;;;;;;;37.38;14.90;;;-4.70;99.90;;;;;;4157369;28;20037;-66
2021/03/08 03:12:46;;;;;;;32.58;14.57;;;-4.70;99.90;;;;;;4159841;28;20034;-65
2021/03/08 03:14:49;;;;;;;34.50;14.10;;;-4.70;99.90;;;;;;4158525;28;20088;-65
2021/03/08 03:16:56;;;;;;;31.30;14.88;;;-4.80;99.90;;;;;;4159473;28;20539;-65
2021/03/08 03:19:00;;;;;;;46.65;19.27;;;-4.70;99.90;;;;;;4158583;28;20527;-65
2021/03/08 03:21:05;;;;;;;35.58;17.35;;;-4.70;99.90;;;;;;4159565;28;20045;-64
2021/03/08 03:23:08;;;;;;;35.00;15.60;;;-4.80;99.90;;;;;;4156857;28;20041;-63
2021/03/08 03:25:13;;;;;;;32.70;15.00;;;-4.80;99.90;;;;;;4160215;28;20071;-63
2021/03/08 03:27:16;;;;;;;33.22;13.52;;;-4.80;99.90;;;;;;4158201;28;20029;-63
2021/03/08 03:29:18;;;;;;;31.85;14.30;;;-4.80;99.90;;;;;;4159719;28;20021;-62
2021/03/08 03:31:21;;;;;;;30.27;13.38;;;-4.80;99.90;;;;;;4158281;28;20025;-63
2021/03/08 03:33:23;;;;;;;30.85;13.63;;;-4.90;99.90;;;;;;4158819;28;20433;-63
2021/03/08 03:35:26;;;;;;;31.20;13.45;;;-4.90;99.90;;;;;;4158980;28;20025;-63
2021/03/08 03:37:28;;;;;;;31.88;13.30;;;-4.90;99.90;;;;;;4158784;28;20076;-64
2021/03/08 03:39:29;;;;;;;24.92;11.80;;;-4.90;99.90;;;;;;4158553;28;20041;-64
2021/03/08 03:41:32;;;;;;;30.27;13.02;;;-4.90;99.90;;;;;;4158368;28;20096;-64
2021/03/08 03:43:34;;;;;;;26.10;12.88;;;-4.90;99.90;;;;;;4158813;28;20853;-63
2021/03/08 03:45:36;;;;;;;23.70;11.38;;;-4.90;99.90;;;;;;4158124;28;20013;-65
2021/03/08 03:47:41;;;;;;;23.00;11.70;;;-4.80;99.90;;;;;;4158926;28;20045;-66
2021/03/08 03:49:42;;;;;;;29.15;13.07;;;-4.80;99.90;;;;;;4157985;28;20033;-65
2021/03/08 03:51:43;;;;;;;27.95;13.32;;;-4.80;99.90;;;;;;4158821;28;20041;-63
2021/03/08 03:53:45;;;;;;;33.03;13.43;;;-4.80;99.90;;;;;;4157533;28;20452;-65
2021/03/08 03:55:47;;;;;;;40.03;16.10;;;-4.70;99.90;;;;;;4158848;28;20532;-65
2021/03/08 03:58:04;;;;;;;32.47;14.57;;;-4.80;99.90;;;;;;4157286;28;20497;-65
2021/03/08 04:00:07;;;;;;;33.67;13.85;;;-4.80;99.90;;;;;;4159020;28;20883;-63
2021/03/08 04:02:24;;;;;;;33.90;15.25;;;-4.90;99.90;;;;;;4157731;28;20115;-63
2021/03/08 04:04:27;;;;;;;40.35;14.95;;;-4.90;99.90;;;;;;4158845;28;20760;-64
2021/03/08 04:06:37;;;;;;;42.78;17.60;;;-4.90;99.90;;;;;;4157616;28;20065;-64
2021/03/08 04:08:43;;;;;;;40.75;18.25;;;-4.80;99.90;;;;;;4158827;28;20033;-62
2021/03/08 04:10:47;;;;;;;44.28;17.00;;;-4.90;99.90;;;;;;4155765;28;20041;-63
2021/03/08 04:12:58;;;;;;;40.22;14.63;;;-5.00;99.90;;;;;;4158646;28;20030;-64
2021/03/08 04:15:01;;;;;;;;;;;-5.00;99.90;;;;;;4157940;28;20083;-63
2021/03/08 04:17:04;;;;;;;35.88;14.98;;;-5.00;99.90;;;;;;4158869;28;19911;-63
2021/03/08 04:19:07;;;;;;;49.00;16.48;;;-4.90;99.90;;;;;;4157652;28;20374;-66
2021/03/08 04:21:10;;;;;;;40.95;17.02;;;-4.90;99.90;;;;;;4158420;28;20646;-62
2021/03/08 04:23:13;;;;;;;45.70;17.42;;;-5.00;99.90;;;;;;4157745;28;20072;-63
2021/03/08 04:25:18;;;;;;;39.47;17.23;;;-5.00;99.90;;;;;;4158336;28;20025;-65
2021/03/08 04:27:21;;;;;;;42.35;16.17;;;-4.90;99.90;;;;;;4157564;28;20493;-63
2021/03/08 04:29:22;;;;;;;40.33;15.77;;;-5.00;99.90;;;;;;4157481;28;20099;-65
2021/03/08 04:31:24;;;;;;;35.33;14.82;;;-4.90;99.90;;;;;;4157364;28;20035;-65
2021/03/08 04:33:26;;;;;;;28.52;14.18;;;-4.90;99.90;;;;;;4157309;28;20092;-65
2021/03/08 04:35:30;;;;;;;35.88;15.55;;;-4.90;99.90;;;;;;4157549;28;20041;-66
2021/03/08 04:37:32;;;;;;;38.47;14.93;;;-4.90;99.90;;;;;;4157156;28;20021;-66
2021/03/08 04:39:37;;;;;;;38.53;15.18;;;-4.90;99.90;;;;;;4158315;28;20532;-66
2021/03/08 04:41:39;;;;;;;42.20;16.20;;;-4.80;99.90;;;;;;4156746;28;20106;-66
2021/03/08 04:43:43;;;;;;;42.65;15.55;;;-4.80;99.90;;;;;;4158252;28;20033;-67
2021/03/08 04:45:45;;;;;;;37.45;14.18;;;-4.80;99.90;;;;;;4156642;28;20033;-67
2021/03/08 04:47:47;;;;;;;33.70;14.43;;;-4.70;99.90;;;;;;4157492;28;20045;-65
2021/03/08 04:49:50;;;;;;;38.95;15.77;;;-4.70;99.90;;;;;;4155875;28;20046;-67
2021/03/08 04:51:53;;;;;;;38.85;15.38;;;-4.70;99.90;;;;;;4158019;28;20060;-64
2021/03/08 04:53:55;;;;;;;41.22;15.32;;;-4.70;99.90;;;;;;4156444;28;20029;-66
2021/03/08 04:55:57;;;;;;;40.22;15.63;;;-4.70;99.90;;;;;;4157638;28;20037;-65
2021/03/08 04:57:59;;;;;;;47.80;18.35;;;-4.70;99.90;;;;;;4156610;28;20095;-65
2021/03/08 05:00:02;;;;;;;43.60;16.55;;;-4.70;99.90;;;;;;4157455;28;20037;-65
2021/03/08 05:02:04;;;;;;;38.75;14.95;;;-4.70;99.90;;;;;;4156224;28;20026;-63
2021/03/08 05:04:08;;;;;;;32.17;11.98;;;-4.60;99.90;;;;;;4157098;28;20045;-64
2021/03/08 05:06:10;;;;;;;26.25;11.05;;;-4.60;99.90;;;;;;4156432;28;20049;-63
2021/03/08 05:08:15;;;;;;;28.95;10.68;;;-4.50;99.90;;;;;;4157501;28;20168;-65
2021/03/08 05:10:19;;;;;;;37.92;13.00;;;-4.20;99.90;;;;;;4157065;28;20083;-66
2021/03/08 05:12:24;;;;;;;34.55;11.93;;;-3.90;99.90;;;;;;4139103;28;20486;-64
2021/03/08 05:14:27;;;;;;;29.45;10.38;;;-3.60;99.90;;;;;;4156774;28;20375;-63
2021/03/08 05:16:30;;;;;;;38.75;14.13;;;-3.30;99.90;;;;;;4143610;28;20033;-65
2021/03/08 05:18:32;;;;;;;36.65;15.20;;;-3.00;99.90;;;;;;4157153;28;20055;-64
2021/03/08 05:20:36;;;;;;;43.63;14.82;;;-3.00;99.90;;;;;;4138394;28;20076;-64
2021/03/08 05:22:39;;;;;;;44.65;15.23;;;-2.90;99.90;;;;;;4156512;28;20045;-64
2021/03/08 05:24:43;;;;;;;39.72;14.02;;;-2.90;99.90;;;;;;4156514;28;20084;-66
2021/03/08 05:26:45;;;;;;;50.92;15.52;;;-2.90;99.90;;;;;;4156703;28;20030;-64
2021/03/08 05:28:46;;;;;;;51.80;16.25;;;-2.90;99.90;;;;;;4156531;28;20037;-64
2021/03/08 05:30:52;;;;;;;39.38;14.85;;;-2.70;99.90;;;;;;4156711;28;20039;-64
2021/03/08 05:33:04;;;;;;;40.75;11.75;;;-2.40;99.90;;;;;;4156031;28;20418;-65
2021/03/08 05:35:07;;;;;;;32.05;10.15;;;-2.00;99.90;;;;;;4156568;28;20045;-65
2021/03/08 05:37:08;;;;;;;24.92;9.20;;;-1.80;99.90;;;;;;4155658;28;20549;-63
2021/03/08 05:39:12;;;;;;;19.48;8.50;;;-1.70;99.90;;;;;;4155916;28;20041;-65
2021/03/08 05:41:41;;;;;;;20.10;7.03;;;-1.50;99.50;;;;;;4155485;28;20079;-65
2021/03/08 05:43:47;;;;;;;35.23;9.00;;;-1.30;98.30;;;;;;4155757;28;20029;-65
2021/03/08 05:46:03;;;;;;;38.50;9.47;;;-1.30;97.70;;;;;;4154767;28;20266;-65
2021/03/08 05:48:34;;;;;;;39.63;12.83;;;-1.30;97.00;;;;;;4155545;28;21247;-64
2021/03/08 05:50:54;;;;;;;;;;;-1.30;97.00;;;;;;4155921;28;20692;-63
2021/03/08 05:53:39;;;;;;;44.80;12.63;;;-1.30;96.50;;;;;;4153415;28;19975;-64
2021/03/08 05:55:59;;;;;;;26.63;10.77;;;-1.40;96.50;;;;;;4109239;28;20279;-69
2021/03/08 05:58:31;;;;;;;54.13;20.67;;;-1.40;96.20;;;;;;4155322;28;20352;-62
2021/03/08 06:00:47;;;;;;;59.83;22.03;;;-1.50;96.10;;;;;;4156559;28;20340;-65
2021/03/08 06:02:54;;;;;;;43.27;17.20;;;-1.40;96.10;;;;;;4156010;28;20259;-63
2021/03/08 06:05:04;;;;;;;46.25;16.60;;;-1.40;96.20;;;;;;4157046;28;20263;-68
2021/03/08 06:07:34;;;;;;;45.90;13.95;;;-1.50;96.00;;;;;;4155229;28;20050;-63
2021/03/08 06:10:03;;;;;;;49.03;15.23;;;-1.60;95.80;;;;;;4138638;28;20093;-63
2021/03/08 06:12:13;;;;;;;44.63;17.07;;;-1.60;96.00;;;;;;4155869;28;20678;-63
2021/03/08 06:14:17;;;;;;;44.30;16.83;;;-1.50;96.40;;;;;;4156668;28;20271;-65
2021/03/08 06:16:36;;;;;;;49.77;18.43;;;-1.20;96.90;;;;;;4155244;28;20026;-66
2021/03/08 06:18:44;;;;;;;50.90;16.63;;;-0.90;96.10;;;;;;4156609;28;20369;-64
2021/03/08 06:20:46;;;;;;;52.97;17.00;;;-0.70;95.90;;;;;;4155867;28;20389;-65
2021/03/08 06:22:49;;;;;;;48.03;16.83;;;-0.50;95.20;;;;;;4156878;28;20271;-63
2021/03/08 06:24:51;;;;;;;59.30;20.50;;;-0.30;95.40;;;;;;4155730;28;21060;-62
2021/03/08 06:26:55;;;;;;;45.63;17.00;;;-0.20;94.80;;;;;;4156638;28;20736;-63
2021/03/08 06:28:57;;;;;;;41.17;15.77;;;0.20;94.80;;;;;;4155987;28;20262;-63
2021/03/08 06:30:59;;;;;;;43.33;14.10;;;0.40;94.10;;;;;;4156021;28;20267;-63
2021/03/08 06:33:00;;;;;;;38.00;13.07;;;0.70;93.20;;;;;;4154673;28;20762;-64
2021/03/08 06:35:03;;;;;;;21.47;8.47;;;0.90;92.00;;;;;;4138762;28;20410;-64
2021/03/08 06:37:10;;;;;;;16.17;7.67;;;1.20;91.10;;;;;;4154687;28;20588;-64
2021/03/08 06:39:11;;;;;;;33.33;11.20;;;1.60;90.00;;;;;;4138128;28;20306;-64
2021/03/08 06:41:13;;;;;;;28.00;11.07;;;1.80;87.50;;;;;;4157558;28;20321;-64
2021/03/08 06:43:14;;;;;;;29.30;11.83;;;1.80;85.70;;;;;;4158789;28;21246;-64
2021/03/08 06:45:15;;;;;;;21.77;9.40;;;1.90;85.80;;;;;;4141255;28;20354;-64
2021/03/08 06:47:19;;;;;;;27.83;10.20;;;1.80;83.30;;;;;;4158541;28;20328;-64
2021/03/08 06:49:20;;;;;;;26.17;11.13;;;2.00;82.80;;;;;;4160195;28;20267;-64
2021/03/08 06:51:22;;;;;;;25.80;10.83;;;2.30;82.30;;;;;;4158476;28;20275;-65
2021/03/08 06:53:29;;;;;;;21.50;9.67;;;2.40;79.70;;;;;;4159317;28;20679;-65
2021/03/08 06:55:31;;;;;;;30.97;13.50;;;2.30;77.90;;;;;;4157893;28;20341;-65
2021/03/08 06:57:37;;;;;;;27.90;12.40;;;2.30;79.50;;;;;;4159157;28;20336;-64
2021/03/08 06:59:52;;;;;;;29.40;12.53;;;2.40;79.80;;;;;;4158158;28;20349;-64
2021/03/08 07:01:54;;;;;;;33.77;11.27;;;2.50;77.90;;;;;;4159483;28;20270;-63
2021/03/08 07:03:57;;;;;;;27.60;10.93;;;2.70;78.00;;;;;;4157706;28;20355;-64
2021/03/08 07:06:20;;;;;;;24.43;10.43;;;2.90;77.50;;;;;;4158448;28;20282;-63
2021/03/08 07:08:24;;;;;;;22.57;8.33;;;3.10;73.90;;;;;;4157635;28;20818;-64
2021/03/08 07:10:33;;;;;;;19.00;6.67;;;3.40;72.90;;;;;;4157189;28;20684;-65
2021/03/08 07:12:46;;;;;;;14.47;6.67;;;3.50;72.90;;;;;;4154584;28;20320;-67
2021/03/08 07:15:01;;;;;;;13.97;6.07;;;3.70;71.70;;;;;;4156358;28;20271;-63
2021/03/08 07:17:22;;;;;;;13.83;6.47;;;3.60;68.90;;;;;;4157295;28;20282;-66
2021/03/08 07:19:23;;;;;;;11.83;6.67;;;3.40;70.30;;;;;;4155848;28;20986;-64
2021/03/08 07:21:25;;;;;;;15.43;6.83;;;3.40;68.60;;;;;;4157002;28;20687;-65
2021/03/08 07:23:26;;;;;;;13.17;6.70;;;3.30;69.10;;;;;;4157569;28;20266;-63
2021/03/08 07:25:32;;;;;;;13.03;5.93;;;3.40;69.30;;;;;;4156761;28;20325;-64
2021/03/08 07:27:44;;;;;;;16.47;6.23;;;3.50;68.50;;;;;;4157299;28;20266;-59
2021/03/08 07:30:05;;;;;;;15.67;6.73;;;3.60;66.70;;;;;;4140334;28;20345;-65
2021/03/08 07:32:11;;;;;;;13.52;6.80;;;3.60;66.80;;;;;;4156402;28;20317;-62
2021/03/08 07:34:13;;;;;;;12.13;7.27;;;3.80;66.90;;;;;;4157246;28;20389;-64
2021/03/08 07:36:15;;;;;;;17.60;7.53;;;3.90;66.60;;;;;;4158803;28;20263;-65
2021/03/08 07:38:35;;;;;;;19.07;7.47;;;4.20;65.90;;;;;;4136382;28;20275;-64
2021/03/08 07:40:40;;;;;;;13.65;6.70;;;4.20;64.60;;;;;;4153312;28;20317;-64
2021/03/08 07:42:42;;;;;;;15.77;7.83;;;4.10;65.20;;;;;;4151642;28;20527;-63
2021/03/08 07:44:51;;;;;;;14.20;7.73;;;4.10;65.30;;;;;;4157047;28;20294;-64
2021/03/08 07:46:56;;;;;;;16.73;8.07;;;4.20;64.90;;;;;;4156927;28;21075;-63
2021/03/08 07:48:59;;;;;;;28.27;8.50;;;4.20;63.70;;;;;;4156568;28;20278;-64
2021/03/08 07:51:07;;;;;;;16.67;7.23;;;4.20;64.60;;;;;;4152684;28;20255;-64
2021/03/08 07:53:32;;;;;;;16.70;6.90;;;4.30;62.80;;;;;;4150630;28;20278;-64
2021/03/08 07:55:37;;;;;;;21.90;7.37;;;4.10;61.20;;;;;;4155689;28;20251;-65
2021/03/08 07:57:39;;;;;;;21.67;7.33;;;4.10;63.40;;;;;;4157159;28;20270;-64
2021/03/08 07:59:40;;;;;;;16.43;7.27;;;4.20;63.30;;;;;;4158099;28;20360;-64
2021/03/08 08:01:42;;;;;;;18.70;8.57;;;4.30;62.50;;;;;;4157099;28;20849;-62
2021/03/08 08:03:43;;;;;;;15.83;8.17;;;4.60;62.90;;;;;;4156827;28;20332;-64
2021/03/08 08:05:44;;;;;;;14.70;7.10;;;4.90;62.40;;;;;;4154716;28;20275;-64
2021/03/08 08:07:47;;;;;;;21.90;8.53;;;5.20;61.70;;;;;;4157843;28;20314;-63
2021/03/08 08:09:49;;;;;;;16.60;9.00;;;5.40;61.50;;;;;;4157825;28;20270;-66
2021/03/08 08:11:52;;;;;;;19.63;7.70;;;5.90;61.30;;;;;;4157808;28;20290;-64
2021/03/08 08:14:01;;;;;;;13.37;6.73;;;6.40;60.00;;;;;;4156933;28;20279;-65
2021/03/08 08:16:13;;;;;;;13.13;7.63;;;6.50;57.70;;;;;;4139637;28;20280;-65
2021/03/08 08:18:17;;;;;;;17.83;7.23;;;6.40;57.10;;;;;;4155230;28;20326;-64
2021/03/08 08:20:18;;;;;;;14.47;7.00;;;6.50;57.90;;;;;;4154065;28;20283;-64
2021/03/08 08:22:24;;;;;;;15.27;7.10;;;6.70;58.00;;;;;;4151160;28;20316;-65
2021/03/08 08:24:26;;;;;;;14.60;7.10;;;7.00;56.50;;;;;;4158532;28;20274;-62
2021/03/08 08:26:28;;;;;;;12.90;7.30;;;7.00;56.30;;;;;;4156010;28;20733;-66
2021/03/08 08:28:30;;;;;;;14.30;7.27;;;7.10;56.00;;;;;;4158984;28;20813;-64
2021/03/08 08:30:32;;;;;;;14.43;7.17;;;7.30;56.80;;;;;;4157519;28;20266;-65
2021/03/08 08:32:52;;;;;;;14.50;7.63;;;7.60;56.00;;;;;;4158344;28;20318;-65
2021/03/08 08:34:53;;;;;;;16.27;7.15;;;7.60;52.70;;;;;;4155548;28;21078;-63
2021/03/08 08:37:24;;;;;;;13.63;7.07;;;7.40;54.00;;;;;;4157251;28;20045;-61
2021/03/08 08:39:25;;;;;;;19.80;8.02;;;6.90;51.90;;;;;;4133118;28;20303;-62
2021/03/08 08:41:31;;;;;;;14.27;7.80;;;6.60;54.60;;;;;;4152016;28;20033;-63
2021/03/08 08:43:32;;;;;;;15.77;7.93;;;6.50;54.90;;;;;;4156069;28;20353;-62
2021/03/08 08:45:35;;;;;;;23.67;10.17;;;6.50;55.00;;;;;;4157761;28;20251;-62
2021/03/08 08:47:37;;;;;;;31.87;12.30;;;6.20;55.20;;;;;;4156269;28;20324;-67
2021/03/08 08:49:40;;;;;;;25.90;11.27;;;5.90;56.40;;;;;;4157762;28;20346;-62
2021/03/08 08:51:51;;;;;;;28.97;9.87;;;5.90;57.40;;;;;;4138452;28;20268;-61
2021/03/08 08:53:52;;;;;;;22.47;8.87;;;6.00;57.30;;;;;;4153610;28;21037;-61
2021/03/08 08:55:54;;;;;;;16.10;7.73;;;6.10;57.10;;;;;;4138508;28;20314;-61
2021/03/08 08:58:38;;;;;;;18.33;8.23;;;6.20;56.60;;;;;;4158142;28;20266;-61
2021/03/08 09:00:40;;;;;;;25.47;10.67;;;6.10;56.00;;;;;;4148770;28;20287;-64
2021/03/08 09:02:41;;;;;;;35.60;12.20;;;6.00;56.80;;;;;;4156800;28;20278;-61
2021/03/08 09:04:43;;;;;;;30.23;11.47;;;5.80;57.40;;;;;;4155910;28;20267;-61
2021/03/08 09:07:00;;;;;;;22.70;11.13;;;5.70;57.70;;;;;;4157571;28;20290;-63
2021/03/08 09:09:01;;;;;;;19.53;8.80;;;5.70;57.30;;;;;;4156637;28;20345;-61
2021/03/08 09:11:02;;;;;;;22.17;8.40;;;5.50;57.50;;;;;;4157100;28;20743;-60
2021/03/08 09:13:11;;;;;;;31.77;13.50;;;5.50;56.90;;;;;;4156596;28;20270;-67
2021/03/08 09:15:17;;;;;;;22.80;11.70;;;5.60;57.70;;;;;;4139889;28;20283;-63
2021/03/08 09:17:29;;;;;;;25.57;10.03;;;5.70;58.10;;;;;;4156415;28;20764;-62
2021/03/08 09:19:30;;;;;;;21.63;9.60;;;5.90;57.10;;;;;;4157943;28;20348;-66
2021/03/08 09:21:31;;;;;;;24.57;10.33;;;5.90;57.20;;;;;;4156238;28;20341;-62
2021/03/08 09:23:32;;;;;;;24.80;9.30;;;6.10;57.30;;;;;;4157329;28;20294;-66
2021/03/08 09:25:35;;;;;;;26.43;9.23;;;6.30;56.70;;;;;;4156104;28;20320;-61
2021/03/08 09:27:42;;;;;;;18.63;9.10;;;6.40;56.20;;;;;;4157158;28;20320;-67
2021/03/08 09:29:45;;;;;;;18.40;9.40;;;6.50;56.10;;;;;;4157364;28;20340;-64
2021/03/08 09:31:46;;;;;;;13.93;7.57;;;6.60;55.80;;;;;;4155903;28;20841;-65
2021/03/08 09:33:47;;;;;;;25.03;8.63;;;6.70;55.30;;;;;;4157258;28;20278;-61
2021/03/08 09:35:51;;;;;;;11.70;7.10;;;6.80;54.80;;;;;;4155717;28;20372;-63
2021/03/08 09:37:56;;;;;;;13.17;6.97;;;6.90;54.70;;;;;;4157510;28;20324;-62
2021/03/08 09:39:58;;;;;;;16.43;8.00;;;7.20;54.40;;;;;;4155243;28;20298;-62
2021/03/08 09:42:02;;;;;;;12.93;7.17;;;7.40;54.10;;;;;;4155868;28;20279;-63
2021/03/08 09:44:04;;;;;;;18.07;8.30;;;7.50;53.70;;;;;;4143260;28;20325;-62
2021/03/08 09:46:09;;;;;;;12.77;7.60;;;7.90;53.80;;;;;;4140944;28;20726;-63
2021/03/08 09:48:13;;;;;;;14.53;7.30;;;7.80;52.10;;;;;;4144553;28;20045;-62
2021/03/08 09:50:18;;;;;;;15.47;7.90;;;7.70;52.10;;;;;;4140653;28;20038;-64
2021/03/08 09:52:37;;;;;;;11.57;6.97;;;7.60;52.80;;;;;;4139331;28;20321;-63
2021/03/08 09:54:48;;;;;;;14.47;8.40;;;7.50;51.90;;;;;;4140607;28;20030;-63
2021/03/08 09:56:49;;;;;;;;;;;7.40;52.00;;;;;;4139791;28;20034;-62
2021/03/08 09:58:59;;;;;;;;;;;7.30;50.90;;;;;;4141161;28;19909;-63
2021/03/08 10:01:14;;;;;;;13.37;7.57;;;7.20;50.30;;;;;;4156590;28;20539;-62
2021/03/08 10:03:15;;;;;;;11.93;7.33;;;7.30;52.00;;;;;;4157101;28;20420;-63
2021/03/08 10:05:16;;;;;;;11.23;6.43;;;7.40;52.00;;;;;;4137932;28;20306;-62
2021/03/08 10:07:18;;;;;;;12.20;7.63;;;7.40;51.80;;;;;;4141439;28;20065;-64
2021/03/08 10:09:23;;;;;;;11.37;6.73;;;7.40;51.60;;;;;;4151481;28;20056;-62
2021/03/08 10:11:31;;;;;;;14.00;7.97;;;7.50;52.10;;;;;;4156520;28;20321;-65
2021/03/08 10:13:35;;;;;;;13.23;7.57;;;7.50;51.50;;;;;;4147334;28;20026;-62
2021/03/08 10:15:47;;;;;;;13.47;8.03;;;7.50;51.30;;;;;;4156334;28;20033;-64
2021/03/08 10:18:06;;;;;;;12.73;7.20;;;7.60;51.70;;;;;;4139576;28;20291;-64
2021/03/08 10:20:07;;;;;;;11.50;7.17;;;7.60;50.60;;;;;;4160116;28;20057;-63
2021/03/08 10:22:08;;;;;;;11.73;7.53;;;7.70;51.30;;;;;;4159137;28;20960;-61
2021/03/08 10:24:10;;;;;;;18.53;8.13;;;7.70;51.00;;;;;;4159804;28;20092;-62
2021/03/08 10:26:14;;;;;;;10.73;6.80;;;7.80;50.90;;;;;;4158823;28;20092;-62
2021/03/08 10:28:15;;;;;;;10.23;6.70;;;7.90;50.40;;;;;;4159208;28;20026;-62
2021/03/08 10:30:17;;;;;;;10.10;6.50;;;7.80;50.50;;;;;;4159583;28;20025;-63
2021/03/08 10:32:18;;;;;;;13.13;7.23;;;8.00;50.50;;;;;;4140930;28;20073;-64
2021/03/08 10:34:21;;;;;;;10.77;7.23;;;8.00;50.20;;;;;;4158640;28;20385;-61
2021/03/08 10:36:27;;;;;;;12.43;6.97;;;7.90;49.90;;;;;;4157596;28;20110;-63
2021/03/08 10:38:33;;;;;;;10.93;6.20;;;7.80;49.20;;;;;;4159736;28;20033;-63
2021/03/08 10:40:35;;;;;;;11.00;7.40;;;7.80;49.80;;;;;;4157799;28;20091;-63
2021/03/08 10:42:37;;;;;;;10.53;6.50;;;7.80;50.20;;;;;;4156365;28;20080;-66